sensor_id;sensor_type;location;lat;lon;timestamp;P1;durP1;ratioP1;P2;durP2;ratioP2
8889;SDS011;4481;43.406;24.454;2022-12-07T00:00:01;23.63;;;16.30;;
8889;SDS011;4481;43.406;24.454;2022-12-07T00:02:29;24.70;;;16.37;;
8889;SDS011;4481;43.406;24.454;2022-12-07T00:04:56;29.30;;;18.87;;
8889;SDS011;4481;43.406;24.454;2022-12-07T00:07:22;27.47;;;18.47;;
8889;SDS011;4481;43.406;24.454;2022-12-07T00:09:48;26.97;;;18.47;;
8889;SDS011;4481;43.406;24.454;2022-12-07T00:12:15;33.17;;;18.73;;
8889;SDS011;4481;43.406;24.454;2022-12-07T00:14:41;28.43;;;18.80;;
8889;SDS011;4481;43.406;24.454;2022-12-07T00:17:07;25.90;;;18.67;;
8889;SDS011;4481;43.406;24.454;2022-12-07T00:19:34;31.90;;;19.30;;
8889;SDS011;4481;43.406;24.454;2022-12-07T00:22:00;29.17;;;19.60;;
8889;SDS011;4481;43.406;24.454;2022-12-07T00:24:26;33.70;;;20.80;;
8889;SDS011;4481;43.406;24.454;2022-12-07T00:26:52;29.57;;;19.70;;
8889;SDS011;4481;43.406;24.454;2022-12-07T00:29:20;26.40;;;18.20;;
8889;SDS011;4481;43.406;24.454;2022-12-07T00:31:47;29.97;;;20.30;;
8889;SDS011;4481;43.406;24.454;2022-12-07T00:34:14;26.33;;;18.57;;
8889;SDS011;4481;43.406;24.454;2022-12-07T00:36:42;27.30;;;18.03;;
8889;SDS011;4481;43.406;24.454;2022-12-07T00:39:08;26.57;;;17.17;;
8889;SDS011;4481;43.406;24.454;2022-12-07T00:41:34;31.30;;;17.30;;
8889;SDS011;4481;43.406;24.454;2022-12-07T00:44:00;27.90;;;18.73;;
8889;SDS011;4481;43.406;24.454;2022-12-07T00:46:26;24.10;;;16.70;;
8889;SDS011;4481;43.406;24.454;2022-12-07T00:48:53;27.17;;;18.00;;
8889;SDS011;4481;43.406;24.454;2022-12-07T00:51:20;28.27;;;17.57;;
8889;SDS011;4481;43.406;24.454;2022-12-07T00:53:48;28.70;;;18.73;;
8889;SDS011;4481;43.406;24.454;2022-12-07T00:56:15;28.50;;;18.37;;
8889;SDS011;4481;43.406;24.454;2022-12-07T00:58:42;22.53;;;17.50;;
8889;SDS011;4481;43.406;24.454;2022-12-07T01:01:09;31.83;;;19.27;;
8889;SDS011;4481;43.406;24.454;2022-12-07T01:03:36;30.23;;;18.90;;
8889;SDS011;4481;43.406;24.454;2022-12-07T01:06:03;21.50;;;15.67;;
8889;SDS011;4481;43.406;24.454;2022-12-07T01:08:30;19.70;;;15.60;;
8889;SDS011;4481;43.406;24.454;2022-12-07T01:10:58;19.50;;;13.97;;
8889;SDS011;4481;43.406;24.454;2022-12-07T01:13:25;21.53;;;13.93;;
8889;SDS011;4481;43.406;24.454;2022-12-07T01:15:55;19.67;;;13.03;;
8889;SDS011;4481;43.406;24.454;2022-12-07T01:18:24;19.10;;;12.10;;
8889;SDS011;4481;43.406;24.454;2022-12-07T01:20:57;24.67;;;13.03;;
8889;SDS011;4481;43.406;24.454;2022-12-07T01:23:23;18.80;;;13.60;;
8889;SDS011;4481;43.406;24.454;2022-12-07T01:25:53;21.53;;;13.80;;
8889;SDS011;4481;43.406;24.454;2022-12-07T01:28:21;21.57;;;13.30;;
8889;SDS011;4481;43.406;24.454;2022-12-07T01:30:54;19.30;;;12.43;;
8889;SDS011;4481;43.406;24.454;2022-12-07T01:33:21;18.93;;;12.83;;
8889;SDS011;4481;43.406;24.454;2022-12-07T01:35:47;17.80;;;11.97;;
8889;SDS011;4481;43.406;24.454;2022-12-07T01:38:13;23.90;;;14.23;;
8889;SDS011;4481;43.406;24.454;2022-12-07T01:40:39;17.70;;;12.97;;
8889;SDS011;4481;43.406;24.454;2022-12-07T01:43:08;22.43;;;13.70;;
8889;SDS011;4481;43.406;24.454;2022-12-07T01:45:41;25.63;;;14.17;;
8889;SDS011;4481;43.406;24.454;2022-12-07T01:48:07;24.00;;;13.83;;
8889;SDS011;4481;43.406;24.454;2022-12-07T01:50:36;21.07;;;12.87;;
8889;SDS011;4481;43.406;24.454;2022-12-07T01:53:04;15.80;;;12.67;;
8889;SDS011;4481;43.406;24.454;2022-12-07T01:55:34;17.93;;;13.23;;
8889;SDS011;4481;43.406;24.454;2022-12-07T01:58:04;24.23;;;13.23;;
8889;SDS011;4481;43.406;24.454;2022-12-07T02:00:30;18.23;;;13.77;;
8889;SDS011;4481;43.406;24.454;2022-12-07T02:02:59;24.13;;;15.63;;
8889;SDS011;4481;43.406;24.454;2022-12-07T02:05:30;30.77;;;17.53;;
8889;SDS011;4481;43.406;24.454;2022-12-07T02:07:57;26.23;;;17.43;;
8889;SDS011;4481;43.406;24.454;2022-12-07T02:10:25;27.27;;;17.37;;
8889;SDS011;4481;43.406;24.454;2022-12-07T02:12:53;26.17;;;15.63;;
8889;SDS011;4481;43.406;24.454;2022-12-07T02:15:23;26.83;;;15.47;;
8889;SDS011;4481;43.406;24.454;2022-12-07T02:17:56;23.90;;;14.80;;
8889;SDS011;4481;43.406;24.454;2022-12-07T02:20:30;27.10;;;16.40;;
8889;SDS011;4481;43.406;24.454;2022-12-07T02:29:05;31.00;;;18.63;;
8889;SDS011;4481;43.406;24.454;2022-12-07T02:31:42;39.07;;;22.00;;
8889;SDS011;4481;43.406;24.454;2022-12-07T02:34:14;32.87;;;18.87;;
8889;SDS011;4481;43.406;24.454;2022-12-07T02:36:46;26.83;;;17.80;;
8889;SDS011;4481;43.406;24.454;2022-12-07T02:39:19;23.60;;;16.03;;
8889;SDS011;4481;43.406;24.454;2022-12-07T02:41:54;23.00;;;15.13;;
8889;SDS011;4481;43.406;24.454;2022-12-07T02:44:26;22.63;;;16.43;;
8889;SDS011;4481;43.406;24.454;2022-12-07T02:46:54;29.33;;;17.07;;
8889;SDS011;4481;43.406;24.454;2022-12-07T02:49:25;25.53;;;15.93;;
8889;SDS011;4481;43.406;24.454;2022-12-07T02:51:53;22.53;;;14.60;;
8889;SDS011;4481;43.406;24.454;2022-12-07T02:54:20;21.13;;;14.00;;
8889;SDS011;4481;43.406;24.454;2022-12-07T02:56:48;17.53;;;13.77;;
8889;SDS011;4481;43.406;24.454;2022-12-07T02:59:17;21.63;;;14.73;;
8889;SDS011;4481;43.406;24.454;2022-12-07T03:01:56;20.33;;;14.50;;
8889;SDS011;4481;43.406;24.454;2022-12-07T03:04:34;22.27;;;15.13;;
8889;SDS011;4481;43.406;24.454;2022-12-07T03:07:11;22.43;;;14.27;;
8889;SDS011;4481;43.406;24.454;2022-12-07T03:09:50;20.50;;;13.47;;
8889;SDS011;4481;43.406;24.454;2022-12-07T03:12:24;22.80;;;15.40;;
8889;SDS011;4481;43.406;24.454;2022-12-07T03:14:55;27.37;;;16.37;;
8889;SDS011;4481;43.406;24.454;2022-12-07T03:17:27;23.37;;;15.50;;
8889;SDS011;4481;43.406;24.454;2022-12-07T03:20:00;24.20;;;15.10;;
8889;SDS011;4481;43.406;24.454;2022-12-07T03:22:31;21.13;;;13.97;;
8889;SDS011;4481;43.406;24.454;2022-12-07T03:25:03;18.97;;;13.83;;
8889;SDS011;4481;43.406;24.454;2022-12-07T03:27:32;20.13;;;12.80;;
8889;SDS011;4481;43.406;24.454;2022-12-07T03:30:04;18.57;;;12.73;;
8889;SDS011;4481;43.406;24.454;2022-12-07T03:32:35;19.20;;;13.83;;
8889;SDS011;4481;43.406;24.454;2022-12-07T03:35:07;26.97;;;15.47;;
8889;SDS011;4481;43.406;24.454;2022-12-07T03:37:42;25.00;;;15.80;;
8889;SDS011;4481;43.406;24.454;2022-12-07T03:40:14;19.87;;;13.53;;
8889;SDS011;4481;43.406;24.454;2022-12-07T03:42:47;21.70;;;12.90;;
8889;SDS011;4481;43.406;24.454;2022-12-07T03:45:15;16.83;;;12.03;;
8889;SDS011;4481;43.406;24.454;2022-12-07T03:47:45;17.90;;;11.77;;
8889;SDS011;4481;43.406;24.454;2022-12-07T03:50:15;15.73;;;11.17;;
8889;SDS011;4481;43.406;24.454;2022-12-07T03:52:52;16.80;;;11.47;;
8889;SDS011;4481;43.406;24.454;2022-12-07T03:55:22;14.90;;;11.07;;
8889;SDS011;4481;43.406;24.454;2022-12-07T03:57:53;15.47;;;11.20;;
8889;SDS011;4481;43.406;24.454;2022-12-07T04:00:24;14.23;;;11.40;;
8889;SDS011;4481;43.406;24.454;2022-12-07T04:02:51;17.33;;;11.53;;
8889;SDS011;4481;43.406;24.454;2022-12-07T04:05:19;17.37;;;11.87;;
8889;SDS011;4481;43.406;24.454;2022-12-07T04:07:45;15.53;;;11.10;;
8889;SDS011;4481;43.406;24.454;2022-12-07T04:10:11;19.27;;;11.33;;
8889;SDS011;4481;43.406;24.454;2022-12-07T04:12:38;17.27;;;11.37;;
8889;SDS011;4481;43.406;24.454;2022-12-07T04:15:04;13.47;;;9.97;;
8889;SDS011;4481;43.406;24.454;2022-12-07T04:17:31;14.77;;;11.50;;
8889;SDS011;4481;43.406;24.454;2022-12-07T04:19:58;20.53;;;13.53;;
8889;SDS011;4481;43.406;24.454;2022-12-07T04:22:24;18.73;;;13.07;;
8889;SDS011;4481;43.406;24.454;2022-12-07T04:24:51;25.80;;;12.03;;
8889;SDS011;4481;43.406;24.454;2022-12-07T04:27:17;14.43;;;11.23;;
8889;SDS011;4481;43.406;24.454;2022-12-07T04:29:43;17.03;;;11.50;;
8889;SDS011;4481;43.406;24.454;2022-12-07T04:32:10;15.77;;;12.23;;
8889;SDS011;4481;43.406;24.454;2022-12-07T04:34:36;16.63;;;11.23;;
8889;SDS011;4481;43.406;24.454;2022-12-07T04:37:03;14.57;;;11.17;;
8889;SDS011;4481;43.406;24.454;2022-12-07T04:39:30;22.03;;;13.73;;
8889;SDS011;4481;43.406;24.454;2022-12-07T04:41:57;17.70;;;12.40;;
8889;SDS011;4481;43.406;24.454;2022-12-07T04:44:24;20.00;;;13.90;;
8889;SDS011;4481;43.406;24.454;2022-12-07T04:46:51;24.27;;;14.77;;
8889;SDS011;4481;43.406;24.454;2022-12-07T04:49:18;24.27;;;17.03;;
8889;SDS011;4481;43.406;24.454;2022-12-07T04:51:45;25.67;;;17.57;;
8889;SDS011;4481;43.406;24.454;2022-12-07T04:54:13;23.30;;;17.00;;
8889;SDS011;4481;43.406;24.454;2022-12-07T04:56:40;27.77;;;16.00;;
8889;SDS011;4481;43.406;24.454;2022-12-07T04:59:07;25.83;;;15.87;;
8889;SDS011;4481;43.406;24.454;2022-12-07T05:01:35;22.73;;;15.77;;
8889;SDS011;4481;43.406;24.454;2022-12-07T05:04:01;19.83;;;13.43;;
8889;SDS011;4481;43.406;24.454;2022-12-07T05:06:27;20.37;;;15.10;;
8889;SDS011;4481;43.406;24.454;2022-12-07T05:08:53;17.17;;;12.37;;
8889;SDS011;4481;43.406;24.454;2022-12-07T05:11:20;17.60;;;12.93;;
8889;SDS011;4481;43.406;24.454;2022-12-07T05:14:06;18.73;;;12.43;;
8889;SDS011;4481;43.406;24.454;2022-12-07T05:16:33;16.50;;;11.93;;
8889;SDS011;4481;43.406;24.454;2022-12-07T05:19:00;18.50;;;12.00;;
8889;SDS011;4481;43.406;24.454;2022-12-07T05:21:26;19.27;;;12.80;;
8889;SDS011;4481;43.406;24.454;2022-12-07T05:23:52;20.43;;;13.90;;
8889;SDS011;4481;43.406;24.454;2022-12-07T05:26:18;20.67;;;15.37;;
8889;SDS011;4481;43.406;24.454;2022-12-07T05:28:49;24.90;;;15.50;;
8889;SDS011;4481;43.406;24.454;2022-12-07T05:31:16;23.13;;;16.60;;
8889;SDS011;4481;43.406;24.454;2022-12-07T05:33:42;28.17;;;16.90;;
8889;SDS011;4481;43.406;24.454;2022-12-07T05:36:08;28.00;;;18.07;;
8889;SDS011;4481;43.406;24.454;2022-12-07T05:38:34;23.93;;;16.97;;
8889;SDS011;4481;43.406;24.454;2022-12-07T05:41:00;28.53;;;17.53;;
8889;SDS011;4481;43.406;24.454;2022-12-07T05:43:28;25.33;;;16.13;;
8889;SDS011;4481;43.406;24.454;2022-12-07T05:45:55;23.97;;;16.07;;
8889;SDS011;4481;43.406;24.454;2022-12-07T05:48:21;24.77;;;16.10;;
8889;SDS011;4481;43.406;24.454;2022-12-07T05:50:48;24.93;;;15.33;;
8889;SDS011;4481;43.406;24.454;2022-12-07T05:53:14;22.97;;;15.20;;
8889;SDS011;4481;43.406;24.454;2022-12-07T05:55:40;23.17;;;16.77;;
8889;SDS011;4481;43.406;24.454;2022-12-07T05:58:07;22.83;;;17.07;;
8889;SDS011;4481;43.406;24.454;2022-12-07T06:00:53;24.93;;;17.07;;
8889;SDS011;4481;43.406;24.454;2022-12-07T06:03:21;25.17;;;17.70;;
8889;SDS011;4481;43.406;24.454;2022-12-07T06:05:47;23.27;;;17.13;;
8889;SDS011;4481;43.406;24.454;2022-12-07T06:08:14;22.97;;;16.40;;
8889;SDS011;4481;43.406;24.454;2022-12-07T06:10:40;20.87;;;15.20;;
8889;SDS011;4481;43.406;24.454;2022-12-07T06:13:08;21.20;;;15.67;;
8889;SDS011;4481;43.406;24.454;2022-12-07T06:15:35;20.27;;;15.23;;
8889;SDS011;4481;43.406;24.454;2022-12-07T06:18:02;19.13;;;15.57;;
8889;SDS011;4481;43.406;24.454;2022-12-07T06:20:29;25.87;;;17.07;;
8889;SDS011;4481;43.406;24.454;2022-12-07T06:22:55;21.67;;;16.10;;
8889;SDS011;4481;43.406;24.454;2022-12-07T06:25:22;20.07;;;15.53;;
8889;SDS011;4481;43.406;24.454;2022-12-07T06:27:48;23.53;;;15.07;;
8889;SDS011;4481;43.406;24.454;2022-12-07T06:30:14;24.73;;;17.40;;
8889;SDS011;4481;43.406;24.454;2022-12-07T06:32:43;25.90;;;17.70;;
8889;SDS011;4481;43.406;24.454;2022-12-07T06:35:09;24.37;;;17.63;;
8889;SDS011;4481;43.406;24.454;2022-12-07T06:37:36;26.80;;;16.57;;
8889;SDS011;4481;43.406;24.454;2022-12-07T06:40:05;25.23;;;18.13;;
8889;SDS011;4481;43.406;24.454;2022-12-07T06:42:31;23.03;;;18.03;;
8889;SDS011;4481;43.406;24.454;2022-12-07T06:44:58;26.03;;;17.93;;
8889;SDS011;4481;43.406;24.454;2022-12-07T06:47:24;26.80;;;18.37;;
8889;SDS011;4481;43.406;24.454;2022-12-07T06:49:50;28.80;;;20.57;;
8889;SDS011;4481;43.406;24.454;2022-12-07T06:52:17;29.03;;;18.83;;
8889;SDS011;4481;43.406;24.454;2022-12-07T06:54:43;30.90;;;16.63;;
8889;SDS011;4481;43.406;24.454;2022-12-07T06:57:11;18.93;;;13.37;;
8889;SDS011;4481;43.406;24.454;2022-12-07T06:59:37;15.07;;;11.63;;
8889;SDS011;4481;43.406;24.454;2022-12-07T07:02:03;18.37;;;12.43;;
8889;SDS011;4481;43.406;24.454;2022-12-07T07:04:29;15.80;;;10.77;;
8889;SDS011;4481;43.406;24.454;2022-12-07T07:06:56;16.57;;;12.00;;
8889;SDS011;4481;43.406;24.454;2022-12-07T07:09:22;14.40;;;10.97;;
8889;SDS011;4481;43.406;24.454;2022-12-07T07:11:49;16.67;;;12.43;;
8889;SDS011;4481;43.406;24.454;2022-12-07T07:14:15;14.87;;;11.47;;
8889;SDS011;4481;43.406;24.454;2022-12-07T07:16:44;21.27;;;14.27;;
8889;SDS011;4481;43.406;24.454;2022-12-07T07:19:10;19.00;;;12.37;;
8889;SDS011;4481;43.406;24.454;2022-12-07T07:21:36;16.53;;;12.83;;
8889;SDS011;4481;43.406;24.454;2022-12-07T07:24:02;18.00;;;13.00;;
8889;SDS011;4481;43.406;24.454;2022-12-07T07:26:29;16.10;;;11.73;;
8889;SDS011;4481;43.406;24.454;2022-12-07T07:28:55;16.83;;;12.57;;
8889;SDS011;4481;43.406;24.454;2022-12-07T07:31:22;18.33;;;13.33;;
8889;SDS011;4481;43.406;24.454;2022-12-07T07:33:48;17.40;;;11.60;;
8889;SDS011;4481;43.406;24.454;2022-12-07T07:36:14;17.10;;;11.87;;
8889;SDS011;4481;43.406;24.454;2022-12-07T07:38:40;15.27;;;11.53;;
8889;SDS011;4481;43.406;24.454;2022-12-07T07:41:06;15.97;;;11.67;;
8889;SDS011;4481;43.406;24.454;2022-12-07T07:43:33;17.20;;;11.90;;
8889;SDS011;4481;43.406;24.454;2022-12-07T07:45:59;16.60;;;12.07;;
8889;SDS011;4481;43.406;24.454;2022-12-07T07:48:26;18.03;;;12.63;;
8889;SDS011;4481;43.406;24.454;2022-12-07T07:50:52;15.87;;;11.90;;
8889;SDS011;4481;43.406;24.454;2022-12-07T07:53:18;18.53;;;12.50;;
8889;SDS011;4481;43.406;24.454;2022-12-07T07:55:50;15.07;;;11.87;;
8889;SDS011;4481;43.406;24.454;2022-12-07T07:58:17;21.17;;;13.67;;
8889;SDS011;4481;43.406;24.454;2022-12-07T08:00:44;17.17;;;12.70;;
8889;SDS011;4481;43.406;24.454;2022-12-07T08:03:10;17.50;;;12.83;;
8889;SDS011;4481;43.406;24.454;2022-12-07T08:05:36;18.50;;;13.77;;
8889;SDS011;4481;43.406;24.454;2022-12-07T08:08:03;16.63;;;12.93;;
8889;SDS011;4481;43.406;24.454;2022-12-07T08:10:29;18.10;;;12.13;;
8889;SDS011;4481;43.406;24.454;2022-12-07T08:12:57;18.77;;;12.90;;
8889;SDS011;4481;43.406;24.454;2022-12-07T08:15:36;15.13;;;11.30;;
8889;SDS011;4481;43.406;24.454;2022-12-07T08:18:04;16.03;;;11.40;;
8889;SDS011;4481;43.406;24.454;2022-12-07T08:20:31;20.40;;;12.03;;
8889;SDS011;4481;43.406;24.454;2022-12-07T08:22:58;17.33;;;11.77;;
8889;SDS011;4481;43.406;24.454;2022-12-07T08:25:25;16.20;;;11.40;;
8889;SDS011;4481;43.406;24.454;2022-12-07T08:27:51;13.83;;;10.83;;
8889;SDS011;4481;43.406;24.454;2022-12-07T08:30:18;14.87;;;12.07;;
8889;SDS011;4481;43.406;24.454;2022-12-07T08:32:46;12.47;;;10.53;;
8889;SDS011;4481;43.406;24.454;2022-12-07T08:35:13;15.10;;;11.77;;
8889;SDS011;4481;43.406;24.454;2022-12-07T08:37:40;14.00;;;11.07;;
8889;SDS011;4481;43.406;24.454;2022-12-07T08:40:08;13.97;;;9.53;;
8889;SDS011;4481;43.406;24.454;2022-12-07T08:42:40;12.07;;;10.03;;
8889;SDS011;4481;43.406;24.454;2022-12-07T08:45:07;13.43;;;10.00;;
8889;SDS011;4481;43.406;24.454;2022-12-07T08:47:37;14.00;;;10.17;;
8889;SDS011;4481;43.406;24.454;2022-12-07T08:50:07;11.87;;;9.53;;
8889;SDS011;4481;43.406;24.454;2022-12-07T08:52:35;15.73;;;9.77;;
8889;SDS011;4481;43.406;24.454;2022-12-07T08:55:03;16.67;;;9.63;;
8889;SDS011;4481;43.406;24.454;2022-12-07T08:57:31;13.90;;;10.03;;
8889;SDS011;4481;43.406;24.454;2022-12-07T08:59:59;11.27;;;9.20;;
8889;SDS011;4481;43.406;24.454;2022-12-07T09:02:26;10.80;;;9.20;;
8889;SDS011;4481;43.406;24.454;2022-12-07T09:04:52;11.07;;;9.00;;
8889;SDS011;4481;43.406;24.454;2022-12-07T09:07:19;11.30;;;9.60;;
8889;SDS011;4481;43.406;24.454;2022-12-07T09:09:46;16.43;;;10.03;;
8889;SDS011;4481;43.406;24.454;2022-12-07T09:12:12;13.23;;;9.83;;
8889;SDS011;4481;43.406;24.454;2022-12-07T09:14:38;12.20;;;9.40;;
8889;SDS011;4481;43.406;24.454;2022-12-07T09:17:05;12.53;;;10.07;;
8889;SDS011;4481;43.406;24.454;2022-12-07T09:19:32;14.57;;;10.47;;
8889;SDS011;4481;43.406;24.454;2022-12-07T09:21:59;14.23;;;9.90;;
8889;SDS011;4481;43.406;24.454;2022-12-07T09:24:25;16.20;;;11.53;;
8889;SDS011;4481;43.406;24.454;2022-12-07T09:26:52;14.63;;;11.50;;
8889;SDS011;4481;43.406;24.454;2022-12-07T09:29:18;16.23;;;10.87;;
8889;SDS011;4481;43.406;24.454;2022-12-07T09:31:44;19.20;;;12.40;;
8889;SDS011;4481;43.406;24.454;2022-12-07T09:34:11;16.57;;;12.67;;
8889;SDS011;4481;43.406;24.454;2022-12-07T09:36:37;17.57;;;11.97;;
8889;SDS011;4481;43.406;24.454;2022-12-07T09:39:03;15.60;;;12.23;;
8889;SDS011;4481;43.406;24.454;2022-12-07T09:41:30;16.80;;;12.37;;
8889;SDS011;4481;43.406;24.454;2022-12-07T09:44:02;13.40;;;11.20;;
8889;SDS011;4481;43.406;24.454;2022-12-07T09:46:31;16.30;;;12.27;;
8889;SDS011;4481;43.406;24.454;2022-12-07T09:49:02;16.13;;;13.30;;
8889;SDS011;4481;43.406;24.454;2022-12-07T09:51:29;19.27;;;14.87;;
8889;SDS011;4481;43.406;24.454;2022-12-07T09:53:56;22.30;;;16.33;;
8889;SDS011;4481;43.406;24.454;2022-12-07T09:56:24;20.80;;;17.03;;
8889;SDS011;4481;43.406;24.454;2022-12-07T09:58:51;19.93;;;15.50;;
8889;SDS011;4481;43.406;24.454;2022-12-07T10:01:24;24.97;;;19.70;;
8889;SDS011;4481;43.406;24.454;2022-12-07T10:03:54;24.00;;;18.03;;
8889;SDS011;4481;43.406;24.454;2022-12-07T10:06:24;19.67;;;16.33;;
8889;SDS011;4481;43.406;24.454;2022-12-07T10:08:50;19.90;;;15.33;;
8889;SDS011;4481;43.406;24.454;2022-12-07T10:11:17;18.37;;;15.40;;
8889;SDS011;4481;43.406;24.454;2022-12-07T10:13:43;33.97;;;20.67;;
8889;SDS011;4481;43.406;24.454;2022-12-07T10:19:20;27.30;;;20.47;;
8889;SDS011;4481;43.406;24.454;2022-12-07T10:21:59;27.43;;;18.47;;
8889;SDS011;4481;43.406;24.454;2022-12-07T10:24:32;28.17;;;18.57;;
8889;SDS011;4481;43.406;24.454;2022-12-07T10:26:59;24.67;;;17.93;;
8889;SDS011;4481;43.406;24.454;2022-12-07T10:29:28;26.90;;;15.60;;
8889;SDS011;4481;43.406;24.454;2022-12-07T10:31:57;18.93;;;14.87;;
8889;SDS011;4481;43.406;24.454;2022-12-07T10:34:26;20.23;;;14.43;;
8889;SDS011;4481;43.406;24.454;2022-12-07T10:37:06;16.80;;;13.13;;
8889;SDS011;4481;43.406;24.454;2022-12-07T10:39:40;20.43;;;14.87;;
8889;SDS011;4481;43.406;24.454;2022-12-07T10:42:08;15.33;;;12.97;;
8889;SDS011;4481;43.406;24.454;2022-12-07T10:44:42;15.53;;;12.20;;
8889;SDS011;4481;43.406;24.454;2022-12-07T10:47:13;20.60;;;13.23;;
8889;SDS011;4481;43.406;24.454;2022-12-07T10:52:58;15.70;;;13.87;;
8889;SDS011;4481;43.406;24.454;2022-12-07T10:55:40;16.27;;;12.50;;
8889;SDS011;4481;43.406;24.454;2022-12-07T10:58:28;14.20;;;11.63;;
8889;SDS011;4481;43.406;24.454;2022-12-07T11:01:04;16.60;;;13.80;;
8889;SDS011;4481;43.406;24.454;2022-12-07T11:06:31;21.10;;;14.47;;
8889;SDS011;4481;43.406;24.454;2022-12-07T11:09:16;20.13;;;13.03;;
8889;SDS011;4481;43.406;24.454;2022-12-07T11:11:57;17.43;;;13.73;;
8889;SDS011;4481;43.406;24.454;2022-12-07T11:14:36;17.10;;;12.63;;
8889;SDS011;4481;43.406;24.454;2022-12-07T11:17:09;17.57;;;12.30;;
8889;SDS011;4481;43.406;24.454;2022-12-07T11:19:52;17.70;;;13.00;;
8889;SDS011;4481;43.406;24.454;2022-12-07T11:22:29;17.53;;;13.03;;
8889;SDS011;4481;43.406;24.454;2022-12-07T11:25:06;15.20;;;12.40;;
8889;SDS011;4481;43.406;24.454;2022-12-07T11:27:44;19.17;;;13.90;;
8889;SDS011;4481;43.406;24.454;2022-12-07T11:30:19;16.90;;;14.40;;
8889;SDS011;4481;43.406;24.454;2022-12-07T11:32:53;23.67;;;17.23;;
8889;SDS011;4481;43.406;24.454;2022-12-07T11:35:33;20.97;;;16.67;;
8889;SDS011;4481;43.406;24.454;2022-12-07T11:38:07;26.70;;;18.50;;
8889;SDS011;4481;43.406;24.454;2022-12-07T11:40:39;25.90;;;18.00;;
8889;SDS011;4481;43.406;24.454;2022-12-07T11:43:12;29.80;;;20.83;;
8889;SDS011;4481;43.406;24.454;2022-12-07T11:45:45;33.57;;;21.73;;
8889;SDS011;4481;43.406;24.454;2022-12-07T11:48:19;29.13;;;19.83;;
8889;SDS011;4481;43.406;24.454;2022-12-07T11:50:51;24.47;;;18.07;;
8889;SDS011;4481;43.406;24.454;2022-12-07T11:53:22;25.47;;;16.80;;
8889;SDS011;4481;43.406;24.454;2022-12-07T11:55:52;22.20;;;15.43;;
8889;SDS011;4481;43.406;24.454;2022-12-07T11:58:35;20.70;;;14.73;;
8889;SDS011;4481;43.406;24.454;2022-12-07T12:01:24;19.30;;;15.37;;
8889;SDS011;4481;43.406;24.454;2022-12-07T12:04:00;24.60;;;16.47;;
8889;SDS011;4481;43.406;24.454;2022-12-07T12:06:31;24.67;;;16.93;;
8889;SDS011;4481;43.406;24.454;2022-12-07T12:09:01;20.77;;;15.40;;
8889;SDS011;4481;43.406;24.454;2022-12-07T12:11:37;21.97;;;15.47;;
8889;SDS011;4481;43.406;24.454;2022-12-07T12:14:19;20.23;;;14.87;;
8889;SDS011;4481;43.406;24.454;2022-12-07T12:17:00;21.83;;;16.17;;
8889;SDS011;4481;43.406;24.454;2022-12-07T12:19:45;26.97;;;17.13;;
8889;SDS011;4481;43.406;24.454;2022-12-07T12:22:28;24.67;;;16.73;;
8889;SDS011;4481;43.406;24.454;2022-12-07T12:25:02;22.90;;;15.80;;
8889;SDS011;4481;43.406;24.454;2022-12-07T12:27:32;19.77;;;15.30;;
8889;SDS011;4481;43.406;24.454;2022-12-07T12:30:00;27.27;;;15.93;;
8889;SDS011;4481;43.406;24.454;2022-12-07T12:32:31;21.77;;;16.80;;
8889;SDS011;4481;43.406;24.454;2022-12-07T12:35:20;23.10;;;17.03;;
8889;SDS011;4481;43.406;24.454;2022-12-07T12:37:54;21.07;;;15.57;;
8889;SDS011;4481;43.406;24.454;2022-12-07T12:40:42;22.23;;;15.93;;
8889;SDS011;4481;43.406;24.454;2022-12-07T12:58:39;29.30;;;19.77;;
8889;SDS011;4481;43.406;24.454;2022-12-07T13:10:21;27.27;;;20.90;;
8889;SDS011;4481;43.406;24.454;2022-12-07T13:13:01;30.10;;;20.73;;
8889;SDS011;4481;43.406;24.454;2022-12-07T13:15:34;25.37;;;18.93;;
8889;SDS011;4481;43.406;24.454;2022-12-07T13:18:03;24.90;;;18.87;;
8889;SDS011;4481;43.406;24.454;2022-12-07T13:20:48;20.83;;;17.77;;
8889;SDS011;4481;43.406;24.454;2022-12-07T13:23:18;25.43;;;18.30;;
8889;SDS011;4481;43.406;24.454;2022-12-07T13:25:48;26.40;;;18.00;;
8889;SDS011;4481;43.406;24.454;2022-12-07T13:28:20;26.87;;;17.10;;
8889;SDS011;4481;43.406;24.454;2022-12-07T13:30:58;20.17;;;15.20;;
8889;SDS011;4481;43.406;24.454;2022-12-07T13:33:30;20.97;;;16.60;;
8889;SDS011;4481;43.406;24.454;2022-12-07T13:36:00;26.93;;;21.07;;
8889;SDS011;4481;43.406;24.454;2022-12-07T13:38:27;31.07;;;23.07;;
8889;SDS011;4481;43.406;24.454;2022-12-07T13:40:59;28.63;;;23.10;;
8889;SDS011;4481;43.406;24.454;2022-12-07T13:43:31;31.20;;;21.80;;
8889;SDS011;4481;43.406;24.454;2022-12-07T13:46:07;26.60;;;19.57;;
8889;SDS011;4481;43.406;24.454;2022-12-07T13:48:43;24.73;;;17.63;;
8889;SDS011;4481;43.406;24.454;2022-12-07T13:51:16;21.80;;;17.23;;
8889;SDS011;4481;43.406;24.454;2022-12-07T13:53:45;23.57;;;17.93;;
8889;SDS011;4481;43.406;24.454;2022-12-07T13:56:13;24.30;;;18.23;;
8889;SDS011;4481;43.406;24.454;2022-12-07T13:58:41;24.13;;;16.87;;
8889;SDS011;4481;43.406;24.454;2022-12-07T14:01:07;26.17;;;18.63;;
8889;SDS011;4481;43.406;24.454;2022-12-07T14:03:34;27.60;;;18.57;;
8889;SDS011;4481;43.406;24.454;2022-12-07T14:06:06;23.37;;;18.07;;
8889;SDS011;4481;43.406;24.454;2022-12-07T14:08:47;31.13;;;20.70;;
8889;SDS011;4481;43.406;24.454;2022-12-07T14:11:14;24.83;;;18.07;;
8889;SDS011;4481;43.406;24.454;2022-12-07T14:13:49;25.17;;;18.30;;
8889;SDS011;4481;43.406;24.454;2022-12-07T14:16:23;24.23;;;19.33;;
8889;SDS011;4481;43.406;24.454;2022-12-07T14:18:53;24.47;;;19.17;;
8889;SDS011;4481;43.406;24.454;2022-12-07T14:21:20;24.63;;;19.20;;
8889;SDS011;4481;43.406;24.454;2022-12-07T14:24:02;26.47;;;19.20;;
8889;SDS011;4481;43.406;24.454;2022-12-07T14:26:34;23.37;;;18.53;;
8889;SDS011;4481;43.406;24.454;2022-12-07T14:31:47;30.73;;;19.20;;
8889;SDS011;4481;43.406;24.454;2022-12-07T14:34:13;24.17;;;20.23;;
8889;SDS011;4481;43.406;24.454;2022-12-07T14:36:40;33.57;;;21.87;;
8889;SDS011;4481;43.406;24.454;2022-12-07T14:39:06;31.07;;;21.27;;
8889;SDS011;4481;43.406;24.454;2022-12-07T14:41:32;33.60;;;21.60;;
8889;SDS011;4481;43.406;24.454;2022-12-07T14:44:17;32.77;;;22.73;;
8889;SDS011;4481;43.406;24.454;2022-12-07T14:46:45;32.43;;;21.33;;
8889;SDS011;4481;43.406;24.454;2022-12-07T14:49:12;27.87;;;20.17;;
8889;SDS011;4481;43.406;24.454;2022-12-07T14:51:38;30.03;;;21.97;;
8889;SDS011;4481;43.406;24.454;2022-12-07T14:54:06;36.07;;;25.30;;
8889;SDS011;4481;43.406;24.454;2022-12-07T14:56:38;32.00;;;22.00;;
8889;SDS011;4481;43.406;24.454;2022-12-07T14:59:04;24.87;;;21.87;;
8889;SDS011;4481;43.406;24.454;2022-12-07T15:01:30;29.87;;;22.00;;
8889;SDS011;4481;43.406;24.454;2022-12-07T15:03:57;26.17;;;20.33;;
8889;SDS011;4481;43.406;24.454;2022-12-07T15:06:24;30.17;;;19.23;;
8889;SDS011;4481;43.406;24.454;2022-12-07T15:08:50;28.13;;;19.57;;
8889;SDS011;4481;43.406;24.454;2022-12-07T15:11:17;23.27;;;17.27;;
8889;SDS011;4481;43.406;24.454;2022-12-07T15:13:43;29.77;;;17.20;;
8889;SDS011;4481;43.406;24.454;2022-12-07T15:16:28;29.37;;;23.13;;
8889;SDS011;4481;43.406;24.454;2022-12-07T15:18:54;28.87;;;18.37;;
8889;SDS011;4481;43.406;24.454;2022-12-07T15:21:21;30.07;;;18.10;;
8889;SDS011;4481;43.406;24.454;2022-12-07T15:23:47;21.70;;;16.57;;
8889;SDS011;4481;43.406;24.454;2022-12-07T15:26:13;20.97;;;15.37;;
8889;SDS011;4481;43.406;24.454;2022-12-07T15:28:39;20.27;;;15.67;;
8889;SDS011;4481;43.406;24.454;2022-12-07T15:31:10;19.17;;;14.77;;